Time;durP1;ratioP1;P1;durP2;ratioP2;P2;SDS_P1;SDS_P2;PMS_P1;PMS_P2;Temp;Humidity;BMP_temperature;BMP_pressure;BME280_temperature;BME280_humidity;BME280_pressure;Samples;Min_cycle;Max_cycle;Signal;HPM_P1;HPM_P2
2022/12/07 00:04:23;;;;;;;10.90;7.27;;;;;;;;;;21087867;28;20712;-77
2022/12/07 00:14:25;;;;;;;13.37;7.17;;;5.50;99.30;;;;;;21087459;28;20239;-77
2022/12/07 00:24:26;;;;;;;10.73;7.03;;;5.40;99.40;;;;;;21086715;28;20227;-78
2022/12/07 00:34:28;;;;;;;12.17;7.80;;;5.30;99.10;;;;;;21085619;28;20625;-80
2022/12/07 00:44:30;;;;;;;11.37;7.53;;;5.20;99.20;;;;;;21085168;28;20234;-82
2022/12/07 00:54:32;;;;;;;12.20;7.77;;;;;;;;;;21084654;28;20208;-81
2022/12/07 01:04:34;;;;;;;11.33;8.00;;;5.40;98.70;;;;;;21081805;28;20242;-81
2022/12/07 01:14:36;;;;;;;15.43;8.53;;;;;;;;;;21082496;28;20667;-81
2022/12/07 01:24:38;;;;;;;13.67;8.20;;;5.50;98.30;;;;;;21081936;28;20262;-81
2022/12/07 01:34:40;;;;;;;14.40;8.43;;;5.40;98.10;;;;;;21080849;28;20570;-80
2022/12/07 01:45:26;;;;;;;11.63;7.30;;;5.40;98.00;;;;;;21080197;28;20288;-79
2022/12/07 01:55:28;;;;;;;13.43;8.23;;;;;;;;;;21079653;28;20731;-80
2022/12/07 02:05:30;;;;;;;15.03;7.73;;;;;;;;;;21079262;28;20245;-80
2022/12/07 02:16:09;;;;;;;13.23;8.33;;;5.30;97.80;;;;;;21078596;28;20657;-82
2022/12/07 02:26:42;;;;;;;14.47;8.53;;;5.20;97.70;;;;;;21080459;28;20237;-81
2022/12/07 02:36:51;;;;;;;14.67;9.23;;;5.20;97.80;;;;;;21078462;28;20208;-76
2022/12/07 02:47:05;;;;;;;12.40;7.80;;;5.20;98.00;;;;;;21077441;28;20231;-77
2022/12/07 02:57:45;;;;;;;14.47;8.87;;;5.20;97.90;;;;;;21077302;28;20208;-80
2022/12/07 03:08:25;;;;;;;14.30;8.57;;;5.20;97.80;;;;;;20985639;28;20231;-75
2022/12/07 03:18:31;;;;;;;14.70;8.13;;;5.20;97.80;;;;;;20993354;28;20214;-74
2022/12/07 03:28:36;;;;;;;13.40;8.27;;;5.20;97.80;;;;;;21001305;28;20233;-73
2022/12/07 03:38:44;;;;;;;14.87;8.57;;;5.20;97.80;;;;;;21007098;28;20207;-75
2022/12/07 03:48:54;;;;;;;12.67;8.20;;;5.20;97.70;;;;;;21005479;28;20227;-80
2022/12/07 03:58:56;;;;;;;15.23;9.10;;;;;;;;;;21015460;28;20305;-75
2022/12/07 04:08:58;;;;;;;13.60;8.90;;;5.40;97.50;;;;;;21088319;28;20275;-81
2022/12/07 04:18:59;;;;;;;12.17;8.30;;;5.30;97.50;;;;;;21087137;28;20199;-79
2022/12/07 04:29:01;;;;;;;15.33;9.23;;;5.40;97.50;;;;;;21086076;28;20246;-74
2022/12/07 04:39:18;;;;;;;17.97;8.93;;;5.30;97.50;;;;;;21085509;28;20290;-77
2022/12/07 04:49:20;;;;;;;13.33;7.83;;;5.30;97.30;;;;;;21084517;28;20314;-74
2022/12/07 04:59:22;;;;;;;13.27;7.90;;;5.40;97.40;;;;;;21083214;28;20232;-78
2022/12/07 05:09:23;;;;;;;16.57;8.00;;;5.50;97.30;;;;;;21083590;28;20568;-80
2022/12/07 05:19:26;;;;;;;13.07;7.30;;;;;;;;;;21082135;28;20203;-80
2022/12/07 05:29:28;;;;;;;13.63;7.80;;;5.50;96.90;;;;;;21080447;28;20231;-79
2022/12/07 05:39:29;;;;;;;10.70;7.47;;;5.40;96.70;;;;;;21081020;28;20208;-80
2022/12/07 05:49:31;;;;;;;10.83;7.70;;;5.40;96.90;;;;;;21060845;28;20228;-80
2022/12/07 05:59:33;;;;;;;13.20;8.10;;;;;;;;;;21057199;28;20235;-78
2022/12/07 06:09:35;;;;;;;14.43;8.83;;;5.40;97.10;;;;;;21077668;28;20238;-71
2022/12/07 06:19:38;;;;;;;11.90;7.97;;;;;;;;;;21077603;28;20213;-77
2022/12/07 06:29:40;;;;;;;13.90;8.90;;;5.40;97.40;;;;;;21077490;28;20776;-77
2022/12/07 06:39:42;;;;;;;14.50;8.80;;;;;;;;;;21076914;28;20256;-77
2022/12/07 06:49:44;;;;;;;16.23;8.90;;;;;;;;;;21076473;28;20593;-71
2022/12/07 06:59:45;;;;;;;13.97;8.03;;;5.50;97.60;;;;;;21078976;28;20229;-71
2022/12/07 07:09:47;;;;;;;13.07;7.97;;;5.50;97.80;;;;;;21091383;28;20265;-71
2022/12/07 07:19:49;;;;;;;14.63;7.60;;;;;;;;;;21090702;28;20656;-69
2022/12/07 07:29:51;;;;;;;13.83;7.67;;;5.50;97.90;;;;;;21088732;28;20231;-70
2022/12/07 07:39:52;;;;;;;12.63;7.50;;;5.50;98.00;;;;;;21088864;28;20733;-71
2022/12/07 07:49:54;;;;;;;11.97;7.83;;;5.60;98.00;;;;;;21088011;28;20243;-71
2022/12/07 07:59:56;;;;;;;14.57;7.57;;;5.60;98.00;;;;;;21085683;28;20260;-70
2022/12/07 08:09:57;;;;;;;14.10;7.90;;;5.70;98.10;;;;;;21084897;28;20236;-76
2022/12/07 08:19:59;;;;;;;17.23;8.13;;;;;;;;;;21084973;28;20208;-71
2022/12/07 08:30:03;;;;;;;11.70;7.57;;;;;;;;;;21083943;28;20231;-71
2022/12/07 08:40:07;;;;;;;13.17;7.37;;;5.80;98.20;;;;;;21083977;28;20267;-70
2022/12/07 08:50:10;;;;;;;11.73;7.40;;;5.90;98.10;;;;;;21084011;28;20235;-70
2022/12/07 09:00:12;;;;;;;15.83;7.17;;;5.90;98.20;;;;;;21082321;28;20225;-75
2022/12/07 09:10:15;;;;;;;12.30;7.47;;;;;;;;;;21081690;28;20761;-75
2022/12/07 09:20:16;;;;;;;13.73;8.73;;;6.00;98.10;;;;;;21080453;28;20202;-73
2022/12/07 09:30:20;;;;;;;11.87;8.23;;;;;;;;;;21078956;28;20540;-76
2022/12/07 09:40:24;;;;;;;10.70;7.43;;;6.20;98.30;;;;;;21079009;28;20267;-70
2022/12/07 09:50:27;;;;;;;10.87;7.43;;;6.20;98.40;;;;;;21077789;28;20285;-77
2022/12/07 10:00:29;;;;;;;11.40;7.70;;;6.40;98.30;;;;;;21054155;28;20295;-76
2022/12/07 10:10:34;;;;;;;13.03;7.00;;;6.40;98.00;;;;;;20994040;28;20302;-76
2022/12/07 10:20:39;;;;;;;11.40;6.27;;;6.30;98.00;;;;;;20994135;28;20220;-75
2022/12/07 10:31:03;;;;;;;10.80;7.00;;;6.30;98.20;;;;;;20993249;28;20242;-76
2022/12/07 10:41:07;;;;;;;9.13;6.43;;;6.50;98.10;;;;;;21009629;28;20215;-74
2022/12/07 10:51:09;;;;;;;9.70;6.20;;;6.50;97.70;;;;;;21010506;28;20704;-75
2022/12/07 11:01:48;;;;;;;21.27;12.37;;;6.70;97.60;;;;;;21037862;28;20242;-77
2022/12/07 11:12:08;;;;;;;10.80;6.53;;;6.80;97.30;;;;;;21091836;28;20237;-71
2022/12/07 11:22:16;;;;;;;11.30;6.60;;;6.70;97.10;;;;;;21091239;28;20233;-76
2022/12/07 11:32:39;;;;;;;10.17;6.60;;;6.90;97.20;;;;;;21089158;28;20279;-75
2022/12/07 11:42:55;;;;;;;8.47;6.23;;;7.00;96.80;;;;;;21088353;28;20708;-75
2022/12/07 11:53:21;;;;;;;10.27;6.03;;;6.90;96.70;;;;;;21087992;28;20206;-76
2022/12/07 12:03:31;;;;;;;7.30;5.37;;;7.10;96.40;;;;;;21093232;28;21036;-75
2022/12/07 12:13:47;;;;;;;10.77;5.27;;;7.00;96.40;;;;;;21086524;28;20319;-75
2022/12/07 12:24:18;;;;;;;8.43;5.37;;;7.10;96.20;;;;;;21084972;28;20269;-75
2022/12/07 12:34:52;;;;;;;9.10;5.40;;;7.20;95.90;;;;;;21084021;28;20665;-75
2022/12/07 12:45:18;;;;;;;7.70;4.70;;;7.20;95.60;;;;;;21070327;28;20276;-74
2022/12/07 12:55:29;;;;;;;7.53;4.77;;;7.00;95.50;;;;;;21082271;28;20268;-76
2022/12/07 13:05:32;;;;;;;7.33;4.90;;;6.90;95.80;;;;;;21082669;28;20590;-75
2022/12/07 13:15:36;;;;;;;9.00;4.90;;;6.70;96.30;;;;;;21081810;28;20662;-76
2022/12/07 13:25:52;;;;;;;6.63;4.40;;;6.50;96.70;;;;;;21079306;28;20248;-76
2022/12/07 13:35:55;;;;;;;7.83;4.80;;;6.50;97.00;;;;;;21010978;28;20202;-69
2022/12/07 13:46:00;;;;;;;9.03;5.17;;;7.10;97.20;;;;;;20996123;28;20234;-72
2022/12/07 13:56:03;;;;;;;10.73;5.60;;;;;;;;;;20993311;28;20220;-67
2022/12/07 14:06:15;;;;;;;8.63;4.50;;;6.90;96.70;;;;;;21062756;28;20241;-67
2022/12/07 14:16:27;;;;;;;9.47;5.27;;;7.00;96.80;;;;;;21075723;28;20205;-71
2022/12/07 14:26:29;;;;;;;8.00;4.70;;;7.10;96.70;;;;;;21059272;28;20244;-68
2022/12/07 14:36:31;;;;;;;8.57;4.80;;;6.90;96.40;;;;;;21076861;28;20263;-68
2022/12/07 14:46:32;;;;;;;10.97;5.27;;;6.70;96.50;;;;;;21076274;28;20237;-71
2022/12/07 14:56:34;;;;;;;8.13;4.67;;;6.60;96.40;;;;;;21068327;28;20288;-76
2022/12/07 15:06:36;;;;;;;9.43;5.63;;;6.40;96.60;;;;;;21074813;28;20242;-71
2022/12/07 15:16:40;;;;;;;8.00;5.10;;;6.40;96.80;;;;;;21056769;28;20205;-67
2022/12/07 15:27:02;;;;;;;9.43;5.40;;;6.20;96.70;;;;;;21088084;28;20706;-70
2022/12/07 15:37:04;;;;;;;9.20;5.53;;;6.10;96.80;;;;;;21087985;28;20734;-66
2022/12/07 15:47:06;;;;;;;8.63;5.33;;;;;;;;;;21088503;28;20253;-67
2022/12/07 15:57:08;;;;;;;10.43;6.53;;;6.10;97.10;;;;;;21088142;28;20666;-66
2022/12/07 16:07:11;;;;;;;9.23;5.43;;;6.10;97.10;;;;;;21087409;28;20239;-66
2022/12/07 16:17:13;;;;;;;2.97;2.30;;;5.70;97.10;;;;;;21085499;28;20213;-65
2022/12/07 16:27:15;;;;;;;4.57;1.83;;;;;;;;;;21084970;28;20757;-69
2022/12/07 16:37:17;;;;;;;2.40;1.70;;;5.40;97.90;;;;;;21085144;28;20258;-69
2022/12/07 16:47:18;;;;;;;6.43;4.07;;;5.50;98.10;;;;;;21084198;28;20709;-67
2022/12/07 16:57:20;;;;;;;14.43;7.63;;;;;;;;;;21083188;28;20208;-68
2022/12/07 17:07:25;;;;;;;12.70;7.10;;;;;;;;;;21082915;28;20244;-67
2022/12/07 17:17:26;;;;;;;8.23;4.33;;;5.50;98.40;;;;;;21082181;28;20217;-66
2022/12/07 17:27:28;;;;;;;5.87;3.90;;;5.40;98.60;;;;;;21081219;28;20235;-66
2022/12/07 17:37:31;;;;;;;12.00;6.67;;;5.50;98.80;;;;;;21080833;28;20204;-67
2022/12/07 17:47:33;;;;;;;12.13;6.80;;;5.50;99.00;;;;;;21079457;28;20285;-72
2022/12/07 17:57:35;;;;;;;10.17;6.00;;;5.60;99.10;;;;;;21079318;28;20205;-72
2022/12/07 18:07:36;;;;;;;10.03;6.83;;;5.60;99.40;;;;;;21078994;28;20251;-66
2022/12/07 18:17:41;;;;;;;9.93;6.77;;;5.60;99.50;;;;;;21078970;28;20204;-71
2022/12/07 18:27:43;;;;;;;11.40;7.90;;;5.60;99.50;;;;;;21078424;28;20239;-71
2022/12/07 18:37:45;;;;;;;12.20;7.87;;;;;;;;;;21078274;28;20727;-72
2022/12/07 18:47:47;;;;;;;13.47;8.43;;;;;;;;;;21078087;28;20241;-83
2022/12/07 18:57:49;;;;;;;15.17;8.27;;;;;;;;;;21083734;28;20617;-71
2022/12/07 19:16:06;;;;;;;13.30;8.67;;;4.10;99.00;;;;;;20982416;28;20566;-72
2022/12/07 19:26:08;;;;;;;13.10;8.33;;;;;;;;;;20983534;28;20319;-73
2022/12/07 19:36:10;;;;;;;10.80;7.67;;;;;;;;;;20983319;28;20259;-72
2022/12/07 19:46:13;;;;;;;11.37;7.50;;;5.40;99.70;;;;;;20982109;28;20232;-73
2022/12/07 19:56:17;;;;;;;14.50;8.50;;;5.40;99.70;;;;;;20981373;28;20221;-72
2022/12/07 20:10:07;;;;;;;11.87;7.70;;;5.50;99.70;;;;;;20987173;28;20555;-71
2022/12/07 20:20:09;;;;;;;12.30;8.43;;;5.50;99.60;;;;;;20984116;28;20306;-69
2022/12/07 20:30:11;;;;;;;17.43;9.97;;;5.60;99.70;;;;;;20980654;28;20212;-70
2022/12/07 20:40:13;;;;;;;15.70;9.33;;;5.60;99.60;;;;;;20979601;28;20216;-67
2022/12/07 20:50:15;;;;;;;13.47;8.90;;;;;;;;;;20979160;28;20271;-66
2022/12/07 21:00:17;;;;;;;19.77;11.17;;;;;;;;;;20976579;28;20653;-69
2022/12/07 21:10:19;;;;;;;14.90;9.43;;;5.30;99.60;;;;;;20976727;28;20673;-70
2022/12/07 21:20:20;;;;;;;18.60;11.30;;;5.30;99.70;;;;;;20928199;28;20213;-68
2022/12/07 21:30:22;;;;;;;18.87;12.13;;;5.20;99.60;;;;;;20921016;28;20219;-71
2022/12/07 21:40:24;;;;;;;23.17;13.70;;;5.20;99.80;;;;;;20920042;28;20677;-67
2022/12/07 21:50:26;;;;;;;21.50;12.73;;;;;;;;;;20919508;28;20216;-67
2022/12/07 22:00:28;;;;;;;18.93;12.17;;;;;;;;;;20918216;28;20244;-66
2022/12/07 22:10:30;;;;;;;20.17;12.00;;;5.10;99.80;;;;;;20917943;28;20279;-67
2022/12/07 22:20:33;;;;;;;20.67;10.83;;;;;;;;;;20917494;28;20213;-70
2022/12/07 22:30:35;;;;;;;20.43;10.93;;;;;;;;;;20915014;28;20205;-70
2022/12/07 22:40:37;;;;;;;21.97;11.93;;;5.10;99.70;;;;;;20915234;28;20690;-71
2022/12/07 22:50:39;;;;;;;19.67;11.63;;;;;;;;;;20914845;28;20208;-70
2022/12/07 23:00:41;;;;;;;22.17;12.80;;;5.10;99.70;;;;;;20913465;28;20309;-71
2022/12/07 23:10:45;;;;;;;22.57;12.67;;;5.20;99.60;;;;;;20913174;28;20201;-71
2022/12/07 23:20:48;;;;;;;21.93;12.03;;;;;;;;;;20913051;28;20239;-70
2022/12/07 23:30:50;;;;;;;23.40;13.30;;;;;;;;;;20914725;28;20223;-72
2022/12/07 23:40:51;;;;;;;21.50;13.40;;;5.20;99.60;;;;;;20914294;28;20560;-70
2022/12/07 23:50:57;;;;;;;20.97;13.20;;;5.30;99.60;;;;;;20913345;28;20261;-68
